createdAt,value
2019-01-09T00:00:06.694Z,1007.05
2019-01-09T00:01:06.701Z,1007.20
2019-01-09T00:02:06.719Z,1007.16
2019-01-09T00:03:06.726Z,1007.19
2019-01-09T00:04:06.737Z,1007.16
2019-01-09T00:05:06.748Z,1007.24
2019-01-09T00:06:06.756Z,1007.31
2019-01-09T00:07:06.772Z,1007.31
2019-01-09T00:08:06.773Z,1007.29
2019-01-09T00:09:06.790Z,1007.32
2019-01-09T00:10:06.801Z,1007.37
2019-01-09T00:11:06.806Z,1007.44
2019-01-09T00:12:06.816Z,1007.45
2019-01-09T00:13:06.825Z,1007.33
2019-01-09T00:14:06.833Z,1007.30
2019-01-09T00:15:06.844Z,1007.38
2019-01-09T00:16:06.854Z,1007.27
2019-01-09T00:17:06.864Z,1007.27
2019-01-09T00:18:06.877Z,1007.25
2019-01-09T00:19:06.882Z,1007.19
2019-01-09T00:20:06.897Z,1007.13
2019-01-09T00:21:06.902Z,1007.21
2019-01-09T00:22:06.914Z,1007.21
2019-01-09T00:23:06.923Z,1007.17
2019-01-09T00:24:06.943Z,1007.29
2019-01-09T00:25:06.945Z,1007.23
2019-01-09T00:26:06.951Z,1006.80
2019-01-09T00:27:06.963Z,1007.01
2019-01-09T00:28:06.972Z,1007.09
2019-01-09T00:29:06.981Z,1007.21
2019-01-09T00:30:06.994Z,1007.19
2019-01-09T00:31:07.006Z,1007.19
2019-01-09T00:32:07.011Z,1007.08
2019-01-09T00:33:07.020Z,1007.21
2019-01-09T00:34:07.029Z,1007.22
2019-01-09T00:35:07.043Z,1007.16
2019-01-09T00:36:07.047Z,1007.24
2019-01-09T00:37:07.056Z,1007.15
2019-01-09T00:38:07.069Z,1007.14
2019-01-09T00:39:07.079Z,1007.21
2019-01-09T00:40:07.089Z,1007.26
2019-01-09T00:41:07.093Z,1007.25
2019-01-09T00:42:07.104Z,1007.23
2019-01-09T00:43:07.114Z,1007.28
2019-01-09T00:44:07.122Z,1007.23
2019-01-09T00:45:07.133Z,1007.22
2019-01-09T00:46:07.141Z,1007.27
2019-01-09T00:47:07.155Z,1007.22
2019-01-09T00:48:07.163Z,1007.29
2019-01-09T00:49:07.172Z,1007.27
2019-01-09T00:50:07.184Z,1007.24
2019-01-09T00:51:07.192Z,1007.21
2019-01-09T00:52:07.199Z,1007.23
2019-01-09T00:53:07.210Z,1007.27
2019-01-09T00:54:07.221Z,1007.26
2019-01-09T00:55:07.229Z,1007.25
2019-01-09T00:56:07.239Z,1007.27
2019-01-09T00:57:07.249Z,1007.24
2019-01-09T00:58:07.258Z,1007.27
2019-01-09T00:59:07.266Z,1007.25
2019-01-09T01:00:07.281Z,1007.21
2019-01-09T01:01:07.285Z,1007.27
2019-01-09T01:02:07.296Z,1007.22
2019-01-09T01:03:07.304Z,1007.27
2019-01-09T01:04:07.315Z,1007.25
2019-01-09T01:05:07.327Z,1007.25
2019-01-09T01:06:07.336Z,1007.28
2019-01-09T01:07:07.346Z,1007.28
2019-01-09T01:08:07.354Z,1007.30
2019-01-09T01:09:07.363Z,1007.30
2019-01-09T01:10:07.374Z,1007.32
2019-01-09T01:11:07.382Z,1007.33
2019-01-09T01:12:07.395Z,1007.30
2019-01-09T01:13:07.405Z,1007.31
2019-01-09T01:14:07.421Z,1007.34
2019-01-09T01:15:07.423Z,1007.29
2019-01-09T01:16:07.432Z,1007.35
2019-01-09T01:17:07.443Z,1007.32
2019-01-09T01:18:07.453Z,1007.39
2019-01-09T01:19:07.459Z,1007.34
2019-01-09T01:20:07.476Z,1007.43
2019-01-09T01:21:07.478Z,1007.43
2019-01-09T01:22:07.494Z,1007.43
2019-01-09T01:23:07.496Z,1007.41
2019-01-09T01:24:07.510Z,1007.39
2019-01-09T01:25:07.516Z,1007.45
2019-01-09T01:26:07.525Z,1007.43
2019-01-09T01:27:07.539Z,1007.41
2019-01-09T01:28:07.547Z,1007.49
2019-01-09T01:29:07.556Z,1007.48
2019-01-09T01:30:07.576Z,1007.51
2019-01-09T01:31:07.586Z,1007.56
2019-01-09T01:32:07.586Z,1007.58
2019-01-09T01:33:07.597Z,1007.60
2019-01-09T01:34:07.613Z,1007.60
2019-01-09T01:35:07.620Z,1007.66
2019-01-09T01:36:07.626Z,1007.70
2019-01-09T01:37:07.634Z,1007.63
2019-01-09T01:38:07.645Z,1007.68
2019-01-09T01:39:07.655Z,1007.64
2019-01-09T01:40:07.664Z,1007.69
2019-01-09T01:41:07.673Z,1007.71
2019-01-09T01:42:07.689Z,1007.73
2019-01-09T01:43:07.696Z,1007.76
2019-01-09T01:44:07.707Z,1007.72
2019-01-09T01:45:07.717Z,1007.75
2019-01-09T01:46:07.722Z,1007.81
2019-01-09T01:47:07.732Z,1007.79
2019-01-09T01:48:07.743Z,1007.82
2019-01-09T01:49:07.753Z,1007.84
2019-01-09T01:50:07.762Z,1007.84
2019-01-09T01:51:07.770Z,1007.83
2019-01-09T01:52:07.781Z,1007.93
2019-01-09T01:53:07.792Z,1007.88
2019-01-09T01:54:07.802Z,1007.91
2019-01-09T01:55:07.812Z,1007.88
2019-01-09T01:56:07.821Z,1007.85
2019-01-09T01:57:07.834Z,1007.89
2019-01-09T01:58:07.838Z,1007.97
2019-01-09T01:59:07.852Z,1007.95
2019-01-09T02:00:07.859Z,1007.90
2019-01-09T02:01:07.886Z,1007.94
2019-01-09T02:02:07.887Z,1007.91
2019-01-09T02:03:07.891Z,1008.00
2019-01-09T02:04:07.906Z,1008.05
2019-01-09T02:05:07.913Z,1008.03
2019-01-09T02:06:07.918Z,1008.00
2019-01-09T02:07:07.933Z,1008.01
2019-01-09T02:08:07.941Z,1008.06
2019-01-09T02:09:07.948Z,1008.03
2019-01-09T02:10:07.960Z,1008.10
2019-01-09T02:11:07.968Z,1008.06
2019-01-09T02:12:07.981Z,1008.14
2019-01-09T02:13:07.985Z,1008.15
2019-01-09T02:14:07.998Z,1008.19
2019-01-09T02:15:08.006Z,1008.18
2019-01-09T02:16:08.015Z,1008.19
2019-01-09T02:17:08.026Z,1008.26
2019-01-09T02:18:08.036Z,1008.27
2019-01-09T02:19:08.059Z,1008.17
2019-01-09T02:20:08.057Z,1008.21
2019-01-09T02:21:08.067Z,1008.18
2019-01-09T02:22:08.078Z,1008.19
2019-01-09T02:23:08.085Z,1008.22
2019-01-09T02:24:08.098Z,1008.19
2019-01-09T02:25:08.109Z,1008.23
2019-01-09T02:26:08.117Z,1008.16
2019-01-09T02:27:08.134Z,1008.13
2019-01-09T02:28:08.134Z,1008.14
2019-01-09T02:29:08.145Z,1008.15
2019-01-09T02:30:08.158Z,1008.15
2019-01-09T02:31:08.163Z,1008.07
2019-01-09T02:32:08.174Z,1008.14
2019-01-09T02:33:08.183Z,1008.20
2019-01-09T02:34:08.190Z,1008.21
2019-01-09T02:35:08.202Z,1008.22
2019-01-09T02:36:13.408Z,1008.25
2019-01-09T02:37:08.224Z,1008.23
2019-01-09T02:38:08.245Z,1008.29
2019-01-09T02:39:08.241Z,1008.33
2019-01-09T02:40:08.261Z,1008.36
2019-01-09T02:41:08.262Z,1008.36
2019-01-09T02:42:08.281Z,1008.35
2019-01-09T02:43:08.300Z,1008.31
2019-01-09T02:44:08.299Z,1008.38
2019-01-09T02:45:08.308Z,1008.38
2019-01-09T02:46:08.312Z,1008.36
2019-01-09T02:47:08.320Z,1008.37
2019-01-09T02:48:08.331Z,1008.41
2019-01-09T02:49:08.338Z,1008.37
2019-01-09T02:50:08.351Z,1008.43
2019-01-09T02:51:08.366Z,1008.49
2019-01-09T02:52:08.369Z,1008.49
2019-01-09T02:53:08.377Z,1008.53
2019-01-09T02:54:08.386Z,1008.54
2019-01-09T02:55:08.406Z,1008.52
2019-01-09T02:56:08.409Z,1008.46
2019-01-09T02:57:08.418Z,1008.47
2019-01-09T02:58:08.427Z,1008.50
2019-01-09T02:59:08.445Z,1008.48
2019-01-09T03:00:08.449Z,1008.47
2019-01-09T03:01:08.461Z,1008.44
2019-01-09T03:02:08.473Z,1008.48
2019-01-09T03:03:08.479Z,1008.43
2019-01-09T03:04:08.487Z,1008.47
2019-01-09T03:05:08.497Z,1008.43
2019-01-09T03:06:08.508Z,1008.48
2019-01-09T03:07:08.519Z,1008.52
2019-01-09T03:08:08.545Z,1008.48
2019-01-09T03:09:08.542Z,1008.58
2019-01-09T03:10:08.551Z,1008.56
2019-01-09T03:11:08.559Z,1008.51
2019-01-09T03:12:08.569Z,1008.48
2019-01-09T03:13:08.582Z,1008.48
2019-01-09T03:14:08.589Z,1008.44
2019-01-09T03:15:08.595Z,1008.51
2019-01-09T03:16:08.607Z,1008.44
2019-01-09T03:17:08.616Z,1008.56
2019-01-09T03:18:08.627Z,1008.60
2019-01-09T03:19:08.640Z,1008.60
2019-01-09T03:20:08.652Z,1008.64
2019-01-09T03:21:08.654Z,1008.62
2019-01-09T03:22:08.668Z,1008.60
2019-01-09T03:23:08.678Z,1008.62
2019-01-09T03:24:08.686Z,1008.61
2019-01-09T03:25:08.697Z,1008.59
2019-01-09T03:26:08.706Z,1008.60
2019-01-09T03:27:08.717Z,1008.63
2019-01-09T03:28:08.726Z,1008.60
2019-01-09T03:29:08.742Z,1008.62
2019-01-09T03:30:08.747Z,1008.62
2019-01-09T03:31:08.755Z,1008.62
2019-01-09T03:32:08.763Z,1008.62
2019-01-09T03:33:08.775Z,1008.60
2019-01-09T03:34:08.782Z,1008.60
2019-01-09T03:35:08.805Z,1008.59
2019-01-09T03:36:08.805Z,1008.60
2019-01-09T03:37:08.810Z,1008.57
2019-01-09T03:38:08.819Z,1008.54
2019-01-09T03:39:08.829Z,1008.57
2019-01-09T03:40:08.842Z,1008.57
2019-01-09T03:41:08.848Z,1008.60
2019-01-09T03:42:08.860Z,1008.60
2019-01-09T03:43:08.871Z,1008.59
2019-01-09T03:44:08.881Z,1008.59
2019-01-09T03:45:08.888Z,1008.59
2019-01-09T03:46:08.898Z,1008.58
2019-01-09T03:47:08.946Z,1008.58
2019-01-09T03:48:08.918Z,1008.58
2019-01-09T03:49:08.926Z,1008.57
2019-01-09T03:50:08.941Z,1008.56
2019-01-09T03:51:08.944Z,1008.59
2019-01-09T03:52:08.961Z,1008.58
2019-01-09T03:53:08.974Z,1008.56
2019-01-09T03:54:08.973Z,1008.58
2019-01-09T03:55:08.983Z,1008.54
2019-01-09T03:56:08.997Z,1008.56
2019-01-09T03:57:09.004Z,1008.54
2019-01-09T03:58:09.017Z,1008.57
2019-01-09T03:59:09.039Z,1008.57
2019-01-09T04:00:09.035Z,1008.61
2019-01-09T04:01:09.046Z,1008.61
2019-01-09T04:02:09.056Z,1008.65
2019-01-09T04:03:09.064Z,1008.66
2019-01-09T04:04:09.076Z,1008.63
2019-01-09T04:05:09.102Z,1008.69
2019-01-09T04:06:09.096Z,1008.65
2019-01-09T04:07:09.102Z,1008.64
2019-01-09T04:08:09.115Z,1008.67
2019-01-09T04:09:09.125Z,1008.69
2019-01-09T04:10:09.143Z,1008.70
2019-01-09T04:11:09.147Z,1008.70
2019-01-09T04:12:09.151Z,1008.70
2019-01-09T04:13:09.163Z,1008.77
2019-01-09T04:14:09.173Z,1008.69
2019-01-09T04:15:09.180Z,1008.69
2019-01-09T04:16:09.197Z,1008.66
2019-01-09T04:17:09.202Z,1008.67
2019-01-09T04:18:09.209Z,1008.70
2019-01-09T04:19:09.223Z,1008.66
2019-01-09T04:20:09.231Z,1008.65
2019-01-09T04:21:09.238Z,1008.63
2019-01-09T04:22:09.246Z,1008.66
2019-01-09T04:23:09.259Z,1008.63
2019-01-09T04:24:09.269Z,1008.62
2019-01-09T04:25:09.279Z,1008.58
2019-01-09T04:26:09.285Z,1008.62
2019-01-09T04:27:09.297Z,1008.58
2019-01-09T04:28:09.308Z,1008.56
2019-01-09T04:29:09.319Z,1008.60
2019-01-09T04:30:09.335Z,1008.63
2019-01-09T04:31:09.341Z,1008.64
2019-01-09T04:32:09.345Z,1008.63
2019-01-09T04:33:09.357Z,1008.66
2019-01-09T04:34:09.367Z,1008.62
2019-01-09T04:35:09.381Z,1008.64
2019-01-09T04:36:09.390Z,1008.68
2019-01-09T04:37:09.400Z,1008.63
2019-01-09T04:38:09.402Z,1008.58
2019-01-09T04:39:09.415Z,1008.58
2019-01-09T04:40:09.439Z,1008.67
2019-01-09T04:41:09.433Z,1008.59
2019-01-09T04:42:09.445Z,1008.57
2019-01-09T04:43:09.454Z,1008.53
2019-01-09T04:44:09.465Z,1008.57
2019-01-09T04:45:09.478Z,1008.60
2019-01-09T04:46:09.480Z,1008.57
2019-01-09T04:47:09.492Z,1008.58
2019-01-09T04:48:09.516Z,1008.55
2019-01-09T04:49:09.528Z,1008.60
2019-01-09T04:50:09.531Z,1008.58
2019-01-09T04:51:09.525Z,1008.58
2019-01-09T04:52:09.534Z,1008.61
2019-01-09T04:53:09.541Z,1008.59
2019-01-09T04:54:09.555Z,1008.58
2019-01-09T04:55:09.562Z,1008.60
2019-01-09T04:56:09.581Z,1008.59
2019-01-09T04:57:09.581Z,1008.61
2019-01-09T04:58:09.589Z,1008.64
2019-01-09T04:59:09.603Z,1008.68
2019-01-09T05:00:09.613Z,1008.68
2019-01-09T05:01:09.618Z,1008.68
2019-01-09T05:02:09.631Z,1008.64
2019-01-09T05:03:09.639Z,1008.69
2019-01-09T05:04:09.655Z,1008.62
2019-01-09T05:05:09.657Z,1008.63
2019-01-09T05:06:09.669Z,1008.65
2019-01-09T05:07:09.687Z,1008.65
2019-01-09T05:08:09.699Z,1008.65
2019-01-09T05:09:09.707Z,1008.65
2019-01-09T05:10:09.708Z,1008.69
2019-01-09T05:11:09.715Z,1008.70
2019-01-09T05:12:09.733Z,1008.74
2019-01-09T05:13:09.733Z,1008.70
2019-01-09T05:14:09.753Z,1008.76
2019-01-09T05:15:09.771Z,1008.75
2019-01-09T05:16:09.768Z,1008.75
2019-01-09T05:17:09.779Z,1008.78
2019-01-09T05:18:09.791Z,1008.79
2019-01-09T05:19:09.794Z,1008.79
2019-01-09T05:20:09.803Z,1008.86
2019-01-09T05:21:09.813Z,1008.82
2019-01-09T05:22:09.822Z,1008.83
2019-01-09T05:23:09.832Z,1008.80
2019-01-09T05:24:09.845Z,1008.79
2019-01-09T05:25:09.854Z,1008.80
2019-01-09T05:26:09.869Z,1008.77
2019-01-09T05:27:09.876Z,1008.79
2019-01-09T05:28:09.883Z,1008.80
2019-01-09T05:29:09.893Z,1008.86
2019-01-09T05:30:09.914Z,1008.84
2019-01-09T05:31:09.914Z,1008.85
2019-01-09T05:32:09.920Z,1008.86
2019-01-09T05:33:09.946Z,1008.89
2019-01-09T05:34:09.946Z,1008.87
2019-01-09T05:35:09.956Z,1008.93
2019-01-09T05:36:09.964Z,1008.84
2019-01-09T05:37:10.015Z,1008.87
2019-01-09T05:38:09.983Z,1008.92
2019-01-09T05:39:09.993Z,1008.84
2019-01-09T05:40:10.002Z,1008.88
2019-01-09T05:41:10.024Z,1008.80
2019-01-09T05:42:10.026Z,1008.84
2019-01-09T05:43:10.037Z,1008.89
2019-01-09T05:44:10.041Z,1008.84
2019-01-09T05:45:10.050Z,1008.82
2019-01-09T05:46:10.061Z,1008.77
2019-01-09T05:47:10.074Z,1008.80
2019-01-09T05:48:10.088Z,1008.83
2019-01-09T05:49:10.094Z,1008.86
2019-01-09T05:50:10.104Z,1008.86
2019-01-09T05:51:10.111Z,1008.89
2019-01-09T05:52:10.127Z,1008.86
2019-01-09T05:53:10.127Z,1008.89
2019-01-09T05:54:10.154Z,1008.92
2019-01-09T05:55:10.149Z,1008.96
2019-01-09T05:56:10.162Z,1008.88
2019-01-09T05:57:10.168Z,1008.86
2019-01-09T05:58:10.177Z,1008.95
2019-01-09T05:59:10.189Z,1008.91
2019-01-09T06:00:10.302Z,1008.90
2019-01-09T06:01:10.207Z,1008.91
2019-01-09T06:02:10.216Z,1008.91
2019-01-09T06:03:10.234Z,1008.94
2019-01-09T06:04:10.240Z,1008.96
2019-01-09T06:05:10.245Z,1008.96
2019-01-09T06:06:10.259Z,1008.96
2019-01-09T06:07:18.094Z,1008.95
2019-01-09T06:08:10.278Z,1008.92
2019-01-09T06:09:10.288Z,1008.91
2019-01-09T06:10:10.294Z,1008.91
2019-01-09T06:11:10.319Z,1008.91
2019-01-09T06:12:10.314Z,1008.94
2019-01-09T06:13:10.327Z,1008.94
2019-01-09T06:14:10.336Z,1008.92
2019-01-09T06:15:10.351Z,1008.97
2019-01-09T06:16:11.662Z,1009.02
2019-01-09T06:17:10.363Z,1009.02
2019-01-09T06:18:10.375Z,1009.04
2019-01-09T06:19:10.383Z,1009.00
2019-01-09T06:20:10.399Z,1009.06
2019-01-09T06:21:10.403Z,1008.99
2019-01-09T06:22:10.412Z,1008.98
2019-01-09T06:23:10.431Z,1008.98
2019-01-09T06:24:10.437Z,1009.03
2019-01-09T06:25:10.451Z,1009.01
2019-01-09T06:26:10.461Z,1009.04
2019-01-09T06:27:10.461Z,1008.99
2019-01-09T06:28:10.471Z,1009.00
2019-01-09T06:29:10.487Z,1008.93
2019-01-09T06:30:10.491Z,1009.00
2019-01-09T06:31:10.505Z,1008.99
2019-01-09T06:32:10.512Z,1009.05
2019-01-09T06:33:10.518Z,1009.02
2019-01-09T06:34:10.528Z,1009.03
2019-01-09T06:35:10.537Z,1009.04
2019-01-09T06:36:10.548Z,1009.03
2019-01-09T06:37:10.560Z,1009.05
2019-01-09T06:38:10.568Z,1009.01
2019-01-09T06:39:10.578Z,1009.06
2019-01-09T06:40:10.587Z,1008.99
2019-01-09T06:41:10.601Z,1009.01
2019-01-09T06:42:10.607Z,1009.01
2019-01-09T06:43:10.646Z,1009.01
2019-01-09T06:44:10.638Z,1009.03
2019-01-09T06:45:10.638Z,1009.08
2019-01-09T06:46:10.645Z,1009.07
2019-01-09T06:47:10.659Z,1009.06
2019-01-09T06:48:10.666Z,1009.08
2019-01-09T06:49:10.676Z,1009.09
2019-01-09T06:50:10.686Z,1009.10
2019-01-09T06:51:10.697Z,1009.13
2019-01-09T06:52:10.705Z,1009.15
2019-01-09T06:53:10.745Z,1009.16
2019-01-09T06:54:10.746Z,1009.14
2019-01-09T06:55:10.751Z,1009.18
2019-01-09T06:56:10.840Z,1009.17
2019-01-09T06:57:10.768Z,1009.23
2019-01-09T06:58:10.768Z,1009.22
2019-01-09T06:59:10.780Z,1009.28
2019-01-09T07:00:10.786Z,1009.36
2019-01-09T07:01:10.794Z,1009.36
2019-01-09T07:02:10.808Z,1009.36
2019-01-09T07:03:10.821Z,1009.44
2019-01-09T07:04:10.826Z,1009.30
2019-01-09T07:05:10.831Z,1009.26
2019-01-09T07:06:10.842Z,1009.36
2019-01-09T07:07:10.853Z,1009.28
2019-01-09T07:08:10.864Z,1009.36
2019-01-09T07:09:10.876Z,1009.38
2019-01-09T07:10:10.884Z,1009.32
2019-01-09T07:11:10.901Z,1009.34
2019-01-09T07:12:10.918Z,1009.37
2019-01-09T07:13:10.914Z,1009.38
2019-01-09T07:14:10.923Z,1009.43
2019-01-09T07:15:11.534Z,1009.45
2019-01-09T07:16:10.946Z,1009.43
2019-01-09T07:17:10.954Z,1009.42
2019-01-09T07:18:10.969Z,1009.45
2019-01-09T07:19:10.971Z,1009.45
2019-01-09T07:20:10.985Z,1009.47
2019-01-09T07:21:11.007Z,1009.52
2019-01-09T07:22:10.999Z,1009.55
2019-01-09T07:23:11.012Z,1009.55
2019-01-09T07:24:11.021Z,1009.54
2019-01-09T07:25:11.031Z,1009.61
2019-01-09T07:26:11.039Z,1009.57
2019-01-09T07:27:11.048Z,1009.59
2019-01-09T07:28:12.213Z,1009.54
2019-01-09T07:29:11.680Z,1009.58
2019-01-09T07:30:11.841Z,1009.59
2019-01-09T07:31:11.868Z,1009.62
2019-01-09T07:32:11.109Z,1009.63
2019-01-09T07:33:11.108Z,1009.64
2019-01-09T07:34:11.126Z,1009.64
2019-01-09T07:35:11.130Z,1009.68
2019-01-09T07:36:11.136Z,1009.69
2019-01-09T07:37:11.315Z,1009.70
2019-01-09T07:38:11.171Z,1009.70
2019-01-09T07:39:11.185Z,1009.71
2019-01-09T07:40:11.178Z,1009.71
2019-01-09T07:41:11.215Z,1009.76
2019-01-09T07:42:11.196Z,1009.72
2019-01-09T07:43:11.210Z,1009.81
2019-01-09T07:44:11.220Z,1009.80
2019-01-09T07:45:11.231Z,1009.81
2019-01-09T07:46:11.239Z,1009.82
2019-01-09T07:47:11.243Z,1009.82
2019-01-09T07:48:11.256Z,1009.82
2019-01-09T07:49:11.270Z,1009.80
2019-01-09T07:50:11.276Z,1009.82
2019-01-09T07:51:11.282Z,1009.87
2019-01-09T07:52:11.295Z,1009.85
2019-01-09T07:53:11.328Z,1009.82
2019-01-09T07:54:11.323Z,1009.86
2019-01-09T07:55:11.326Z,1009.88
2019-01-09T07:56:11.338Z,1009.86
2019-01-09T07:57:11.343Z,1009.90
2019-01-09T07:58:11.352Z,1009.86
2019-01-09T07:59:11.373Z,1009.91
2019-01-09T08:00:11.377Z,1009.98
2019-01-09T08:01:11.394Z,1009.90
2019-01-09T08:02:11.402Z,1009.92
2019-01-09T08:03:11.423Z,1009.92
2019-01-09T08:04:11.426Z,1009.92
2019-01-09T08:05:11.428Z,1009.92
2019-01-09T08:06:11.430Z,1009.97
2019-01-09T08:07:11.443Z,1009.98
2019-01-09T08:08:11.447Z,1009.95
2019-01-09T08:09:11.469Z,1010.02
2019-01-09T08:10:11.468Z,1010.01
2019-01-09T08:11:11.493Z,1010.05
2019-01-09T08:12:11.502Z,1010.01
2019-01-09T08:13:11.510Z,1010.06
2019-01-09T08:14:11.506Z,1010.07
2019-01-09T08:15:11.530Z,1010.09
2019-01-09T08:16:11.529Z,1010.10
2019-01-09T08:17:11.537Z,1010.16
2019-01-09T08:18:11.552Z,1010.15
2019-01-09T08:19:11.581Z,1010.14
2019-01-09T08:20:11.564Z,1010.15
2019-01-09T08:21:11.578Z,1010.19
2019-01-09T08:22:11.581Z,1010.17
2019-01-09T08:23:11.617Z,1010.22
2019-01-09T08:24:11.816Z,1010.26
2019-01-09T08:25:11.611Z,1010.24
2019-01-09T08:26:11.670Z,1010.23
2019-01-09T08:27:11.631Z,1010.26
2019-01-09T08:28:11.645Z,1010.25
2019-01-09T08:32:12.591Z,1010.31
2019-01-09T08:33:12.469Z,1010.29
2019-01-09T08:34:13.319Z,1010.32
2019-01-09T08:35:12.368Z,1010.33
2019-01-09T08:36:11.721Z,1010.34
2019-01-09T08:37:11.726Z,1010.32
2019-01-09T08:38:11.785Z,1010.31
2019-01-09T08:39:11.864Z,1010.40
2019-01-09T08:40:11.756Z,1010.36
2019-01-09T08:41:11.954Z,1010.36
2019-01-09T08:42:11.791Z,1010.40
2019-01-09T08:43:11.796Z,1010.45
2019-01-09T08:44:11.794Z,1010.44
2019-01-09T08:45:11.810Z,1010.49
2019-01-09T08:46:11.815Z,1010.44
2019-01-09T08:47:11.832Z,1010.52
2019-01-09T08:48:11.838Z,1010.48
2019-01-09T08:49:11.854Z,1010.48
2019-01-09T08:50:12.685Z,1010.49
2019-01-09T08:51:11.987Z,1010.53
2019-01-09T08:52:11.893Z,1010.53
2019-01-09T08:53:11.885Z,1010.51
2019-01-09T08:54:11.900Z,1010.59
2019-01-09T08:55:11.980Z,1010.56
2019-01-09T08:56:11.931Z,1010.60
2019-01-09T08:57:11.955Z,1010.61
2019-01-09T08:59:12.017Z,1010.58
2019-01-09T09:00:11.967Z,1010.65
2019-01-09T09:01:11.980Z,1010.65
2019-01-09T09:02:12.002Z,1010.67
2019-01-09T09:03:11.988Z,1010.70
2019-01-09T09:04:11.999Z,1010.68
2019-01-09T09:05:12.024Z,1010.69
2019-01-09T09:06:12.025Z,1010.70
2019-01-09T09:07:12.052Z,1010.67
2019-01-09T09:08:12.573Z,1010.70
2019-01-09T09:09:12.059Z,1010.68
2019-01-09T09:10:12.063Z,1010.78
2019-01-09T09:11:12.074Z,1010.74
2019-01-09T09:12:12.083Z,1010.76
2019-01-09T09:13:12.131Z,1010.72
2019-01-09T09:14:12.106Z,1010.78
2019-01-09T09:15:12.189Z,1010.80
2019-01-09T09:16:12.131Z,1010.84
2019-01-09T09:17:12.157Z,1010.83
2019-01-09T09:18:12.147Z,1010.86
2019-01-09T09:19:12.208Z,1010.88
2019-01-09T09:20:12.172Z,1010.89
2019-01-09T09:21:12.187Z,1010.90
2019-01-09T09:22:12.184Z,1010.88
2019-01-09T09:23:12.198Z,1010.87
2019-01-09T09:24:12.206Z,1010.91
2019-01-09T09:25:12.231Z,1010.93
2019-01-09T09:26:12.245Z,1010.94
2019-01-09T09:27:12.238Z,1010.88
2019-01-09T09:28:12.246Z,1010.96
2019-01-09T09:29:12.263Z,1010.93
2019-01-09T09:30:12.266Z,1010.96
2019-01-09T09:31:12.285Z,1010.93
2019-01-09T09:32:12.292Z,1011.01
2019-01-09T09:33:12.307Z,1011.01
2019-01-09T09:35:12.321Z,1011.02
2019-01-09T09:36:12.332Z,1011.01
2019-01-09T09:37:12.340Z,1011.07
2019-01-09T09:38:20.271Z,1011.04
2019-01-09T09:39:12.382Z,1011.10
2019-01-09T09:40:12.373Z,1011.12
2019-01-09T09:41:12.417Z,1011.08
2019-01-09T09:42:12.899Z,1011.09
2019-01-09T09:43:13.208Z,1011.12
2019-01-09T09:44:12.418Z,1011.17
2019-01-09T09:45:12.540Z,1011.13
2019-01-09T09:46:12.431Z,1011.17
2019-01-09T09:47:12.443Z,1011.21
2019-01-09T09:48:12.455Z,1011.15
2019-01-09T09:49:12.460Z,1011.23
2019-01-09T09:50:12.489Z,1011.24
2019-01-09T09:51:12.499Z,1011.20
2019-01-09T09:52:12.495Z,1011.22
2019-01-09T09:53:12.508Z,1011.24
2019-01-09T09:56:12.537Z,1011.22
2019-01-09T09:57:12.544Z,1011.24
2019-01-09T09:58:12.550Z,1011.27
2019-01-09T10:00:12.577Z,1011.37
2019-01-09T10:01:12.704Z,1011.36
2019-01-09T10:02:12.594Z,1011.41
2019-01-09T10:03:12.614Z,1011.34
2019-01-09T10:04:12.617Z,1011.36
2019-01-09T10:05:12.642Z,1011.34
2019-01-09T10:06:12.652Z,1011.36
2019-01-09T10:07:12.646Z,1011.30
2019-01-09T10:08:13.220Z,1011.34
2019-01-09T10:09:12.796Z,1011.39
2019-01-09T10:10:12.675Z,1011.42
2019-01-09T10:11:12.690Z,1011.36
2019-01-09T10:12:12.709Z,1011.37
2019-01-09T10:13:12.725Z,1011.36
2019-01-09T10:14:12.713Z,1011.39
2019-01-09T10:15:12.736Z,1011.35
2019-01-09T10:16:12.747Z,1011.42
2019-01-09T10:18:12.764Z,1011.48
2019-01-09T10:19:12.800Z,1011.49
2019-01-09T10:20:12.795Z,1011.45
2019-01-09T10:21:12.814Z,1011.42
2019-01-09T10:23:12.809Z,1011.49
2019-01-09T10:24:12.831Z,1011.50
2019-01-09T10:25:12.849Z,1011.48
2019-01-09T10:26:12.838Z,1011.49
2019-01-09T10:27:12.871Z,1011.44
2019-01-09T10:28:12.869Z,1011.47
2019-01-09T10:29:12.882Z,1011.41
2019-01-09T10:30:13.744Z,1011.44
2019-01-09T10:31:12.892Z,1011.43
2019-01-09T10:32:13.032Z,1011.44
2019-01-09T10:33:12.930Z,1011.42
2019-01-09T10:34:12.988Z,1011.47
2019-01-09T10:35:12.945Z,1011.42
2019-01-09T10:36:12.950Z,1011.48
2019-01-09T10:37:12.967Z,1011.46
2019-01-09T10:38:12.960Z,1011.39
2019-01-09T10:39:13.287Z,1011.41
2019-01-09T10:40:12.979Z,1011.42
2019-01-09T10:41:12.989Z,1011.43
2019-01-09T10:42:13.010Z,1011.51
2019-01-09T10:43:13.013Z,1011.39
2019-01-09T10:44:18.783Z,1011.49
2019-01-09T10:45:13.032Z,1011.43
2019-01-09T10:46:13.044Z,1011.43
2019-01-09T10:47:13.067Z,1011.38
2019-01-09T10:48:13.085Z,1011.38
2019-01-09T10:49:13.093Z,1011.49
2019-01-09T10:50:13.086Z,1011.47
2019-01-09T10:51:13.138Z,1011.55
2019-01-09T10:52:13.138Z,1011.47
2019-01-09T10:53:13.209Z,1011.46
2019-01-09T10:54:13.128Z,1011.42
2019-01-09T10:55:13.139Z,1011.52
2019-01-09T10:56:13.153Z,1011.45
2019-01-09T10:57:13.178Z,1011.46
2019-01-09T10:58:13.177Z,1011.47
2019-01-09T10:59:13.186Z,1011.44
2019-01-09T11:00:13.191Z,1011.45
2019-01-09T11:01:13.205Z,1011.52
2019-01-09T11:03:13.316Z,1011.48
2019-01-09T11:04:13.232Z,1011.61
2019-01-09T11:05:13.286Z,1011.51
2019-01-09T11:06:14.528Z,1011.47
2019-01-09T11:07:13.374Z,1011.49
2019-01-09T11:08:14.219Z,1011.54
2019-01-09T11:09:13.297Z,1011.50
2019-01-09T11:10:13.294Z,1011.45
2019-01-09T11:11:13.307Z,1011.46
2019-01-09T11:12:13.319Z,1011.54
2019-01-09T11:13:13.331Z,1011.43
2019-01-09T11:14:13.335Z,1011.52
2019-01-09T11:15:13.370Z,1011.44
2019-01-09T11:16:13.658Z,1011.43
2019-01-09T11:17:13.375Z,1011.43
2019-01-09T11:18:13.376Z,1011.41
2019-01-09T11:19:13.438Z,1011.36
2019-01-09T11:20:13.436Z,1011.38
2019-01-09T11:21:13.411Z,1011.36
2019-01-09T11:22:13.423Z,1011.39
2019-01-09T11:23:13.443Z,1011.43
2019-01-09T11:24:13.445Z,1011.36
2019-01-09T11:25:13.453Z,1011.39
2019-01-09T11:26:15.186Z,1011.39
2019-01-09T11:27:13.478Z,1011.34
2019-01-09T11:28:13.954Z,1011.36
2019-01-09T11:29:13.502Z,1011.44
2019-01-09T11:30:13.512Z,1011.38
2019-01-09T11:31:13.518Z,1011.41
2019-01-09T11:32:13.535Z,1011.35
2019-01-09T11:33:13.540Z,1011.38
2019-01-09T11:34:13.581Z,1011.39
2019-01-09T11:35:13.581Z,1011.42
2019-01-09T11:36:13.569Z,1011.40
2019-01-09T11:37:14.530Z,1011.42
2019-01-09T11:38:13.594Z,1011.39
2019-01-09T11:39:13.600Z,1011.40
2019-01-09T11:40:13.609Z,1011.35
2019-01-09T11:41:13.621Z,1011.41
2019-01-09T11:42:13.638Z,1011.34
2019-01-09T11:43:13.702Z,1011.31
2019-01-09T11:44:13.660Z,1011.32
2019-01-09T11:45:13.669Z,1011.32
2019-01-09T11:46:13.692Z,1011.35
2019-01-09T11:47:13.687Z,1011.33
2019-01-09T11:48:14.378Z,1011.37
2019-01-09T11:49:13.706Z,1011.44
2019-01-09T11:50:13.716Z,1011.40
2019-01-09T11:51:13.726Z,1011.42
2019-01-09T11:52:13.754Z,1011.39
2019-01-09T11:53:13.750Z,1011.34
2019-01-09T11:54:13.772Z,1011.36
2019-01-09T11:55:13.793Z,1011.41
2019-01-09T11:56:13.779Z,1011.38
2019-01-09T11:57:13.794Z,1011.45
2019-01-09T11:58:13.812Z,1011.43
2019-01-09T11:59:13.810Z,1011.42
2019-01-09T12:00:13.831Z,1011.44
2019-01-09T12:01:13.857Z,1011.47
2019-01-09T12:02:21.806Z,1011.43
2019-01-09T12:03:13.873Z,1011.43
2019-01-09T12:04:13.868Z,1011.37
2019-01-09T12:05:13.877Z,1011.51
2019-01-09T12:06:13.893Z,1011.34
2019-01-09T12:07:13.930Z,1011.43
2019-01-09T12:08:13.917Z,1011.37
2019-01-09T12:09:13.919Z,1011.44
2019-01-09T12:10:13.932Z,1011.38
2019-01-09T12:11:13.996Z,1011.51
2019-01-09T12:12:13.961Z,1011.46
2019-01-09T12:13:13.969Z,1011.44
2019-01-09T12:14:13.976Z,1011.48
2019-01-09T12:15:13.982Z,1011.44
2019-01-09T12:16:14.013Z,1011.43